TAF Text Data
IDs:
Format:
Raw Decoded Include METAR

Data at: 1820 UTC 26 Oct 2021

METAR for:KPWK (Chicago/Executive Ar, IL, US)
Text:KPWK 261756Z 07008KT 10SM FEW030 BKN046 13/06 A3010 RMK AO2 T01280056
Temperature: 12.8°C ( 55°F)
Dewpoint: 5.6°C ( 42°F) [RH = 62%]
Pressure (altimeter):30.10 inches Hg (1019.4 mb)
Winds:from the ENE (70 degrees) at 9 MPH (8 knots; 4.1 m/s)
Visibility:10 or more sm (16+ km)
Ceiling:4600 feet AGL
Clouds: few clouds at 3000 feet AGL, broken clouds at 4600 feet AGL

TAF for:KPWK (Chicago/Executive Ar, IL, US)
Text:No data found

METAR for:KORD (Chicago/O'Hare Intl, IL, US)
Text:KORD 261751Z 03009KT 10SM FEW031 BKN046 13/06 A3009 RMK AO2 SLP189 T01330056 10133 20056 58009 $
Temperature: 13.3°C ( 56°F)
Dewpoint: 5.6°C ( 42°F) [RH = 60%]
Pressure (altimeter):30.09 inches Hg (1019.0 mb) [Sea level pressure: 1018.9 mb]
Winds:from the NNE (30 degrees) at 10 MPH (9 knots; 4.6 m/s)
Visibility:10 or more sm (16+ km)
Ceiling:4600 feet AGL
Clouds: few clouds at 3100 feet AGL, broken clouds at 4600 feet AGL
QC Flag:SOME DATA ABOVE MAY BE INACCURATE!!!"$" is an indication the sensor requires maintenance.

TAF for:KORD (Chicago/O'Hare Intl, IL, US) issued at 1725 UTC 26 Oct 2021
Text:KORD 261725Z 2618/2724 01010KT P6SM SCT025 BKN035
Forecast period:1800 UTC 26 October 2021 to 0300 UTC 27 October 2021
Forecast type:FROM: standard forecast or significant change
Winds:from the N (10 degrees) at 12 MPH (10 knots; 5.1 m/s)
Visibility:6 or more sm (10+ km)
Ceiling:3500 feet AGL
Clouds: scattered clouds at 2500 feet AGL, broken clouds at 3500 feet AGL
Text:FM270300 06004KT P6SM BKN035
Forecast period:0300 to 1200 UTC 27 October 2021
Forecast type:FROM: standard forecast or significant change
Winds:from the ENE (60 degrees) at 5 MPH (4 knots; 2.1 m/s)
Visibility:6 or more sm (10+ km)
Ceiling:3500 feet AGL
Clouds: broken clouds at 3500 feet AGL
Text:FM271200 14005KT P6SM SCT035 BKN250
Forecast period:1200 to 1800 UTC 27 October 2021
Forecast type:FROM: standard forecast or significant change
Winds:from the SE (140 degrees) at 6 MPH (5 knots; 2.6 m/s)
Visibility:6 or more sm (10+ km)
Ceiling:25000 feet AGL
Clouds: scattered clouds at 3500 feet AGL, broken clouds at 25000 feet AGL
Text:FM271800 11010KT P6SM BKN250
Forecast period:1800 UTC 27 October 2021 to 0000 UTC 28 October 2021
Forecast type:FROM: standard forecast or significant change
Winds:from the ESE (110 degrees) at 12 MPH (10 knots; 5.1 m/s)
Visibility:6 or more sm (10+ km)
Ceiling:25000 feet AGL
Clouds: broken clouds at 25000 feet AGL

METAR for:KRFD (Rockford Intl, IL, US)
Text:KRFD 261754Z VRB03KT 10SM FEW040 SCT250 13/03 A3012 RMK AO2 SLP202 T01280033 10133 20017 58014
Temperature: 12.8°C ( 55°F)
Dewpoint: 3.3°C ( 38°F) [RH = 52%]
Pressure (altimeter):30.12 inches Hg (1020.1 mb) [Sea level pressure: 1020.2 mb]
Winds:variable direction winds at 3 MPH (3 knots; 1.5 m/s)
Visibility:10 or more sm (16+ km)
Ceiling:at least 12,000 feet AGL
Clouds: few clouds at 4000 feet AGL, scattered clouds at 25000 feet AGL

TAF for:KRFD (Rockford Intl, IL, US) issued at 1725 UTC 26 Oct 2021
Text:KRFD 261725Z 2618/2718 08005KT P6SM FEW040 SCT250
Forecast period:1800 UTC 26 October 2021 to 1300 UTC 27 October 2021
Forecast type:FROM: standard forecast or significant change
Winds:from the E (80 degrees) at 6 MPH (5 knots; 2.6 m/s)
Visibility:6 or more sm (10+ km)
Ceiling:at least 12,000 feet AGL
Clouds: few clouds at 4000 feet AGL, scattered clouds at 25000 feet AGL
Text:FM271300 13009KT P6SM BKN250
Forecast period:1300 to 1800 UTC 27 October 2021
Forecast type:FROM: standard forecast or significant change
Winds:from the SE (130 degrees) at 10 MPH (9 knots; 4.6 m/s)
Visibility:6 or more sm (10+ km)
Ceiling:25000 feet AGL
Clouds: broken clouds at 25000 feet AGL